createdAt,value
2022-12-24T00:02:29.646Z,6.07
2022-12-24T00:07:31.805Z,6.07
2022-12-24T00:12:33.596Z,6.12
2022-12-24T00:17:35.467Z,6.20
2022-12-24T00:22:37.238Z,6.30
2022-12-24T00:27:38.951Z,6.47
2022-12-24T00:32:40.596Z,6.62
2022-12-24T00:37:42.237Z,6.76
2022-12-24T00:42:43.934Z,6.87
2022-12-24T00:47:45.582Z,7.10
2022-12-24T00:52:47.428Z,7.31
2022-12-24T00:57:49.053Z,7.50
2022-12-24T01:02:50.812Z,7.81
2022-12-24T01:07:54.015Z,8.11
2022-12-24T01:12:55.640Z,8.38
2022-12-24T01:17:58.419Z,8.73
2022-12-24T01:23:00.394Z,8.94
2022-12-24T01:28:01.992Z,9.18
2022-12-24T01:33:03.675Z,9.40
2022-12-24T01:38:05.297Z,9.64
2022-12-24T01:43:28.154Z,9.91
2022-12-24T01:48:49.906Z,10.23
2022-12-24T01:53:58.581Z,10.40
2022-12-24T01:59:10.458Z,10.54
2022-12-24T02:04:36.521Z,10.53
2022-12-24T02:09:39.873Z,10.63
2022-12-24T02:14:41.544Z,10.76
2022-12-24T02:20:04.988Z,10.83
2022-12-24T02:25:30.779Z,10.91
2022-12-24T02:30:36.156Z,10.97
2022-12-24T02:35:46.859Z,11.03
2022-12-24T02:41:07.201Z,10.93
2022-12-24T02:46:13.383Z,10.84
2022-12-24T02:51:16.191Z,10.75
2022-12-24T02:56:46.008Z,10.73
2022-12-24T03:02:01.099Z,10.71
2022-12-24T03:07:11.903Z,10.65
2022-12-24T03:12:26.899Z,10.61
2022-12-24T03:17:28.877Z,10.63
2022-12-24T03:22:32.891Z,10.66
2022-12-24T03:27:36.386Z,10.76
2022-12-24T03:32:38.926Z,10.77
2022-12-24T03:37:40.855Z,10.72
2022-12-24T03:42:42.695Z,10.62
2022-12-24T03:47:44.747Z,10.54
2022-12-24T03:52:46.379Z,10.49
2022-12-24T03:57:48.352Z,10.46
2022-12-24T04:02:50.119Z,10.40
2022-12-24T04:07:51.839Z,10.37
2022-12-24T04:12:53.503Z,10.43
2022-12-24T04:17:55.107Z,10.61
2022-12-24T04:22:56.757Z,10.68
2022-12-24T04:27:58.361Z,10.69
2022-12-24T04:32:59.979Z,10.70
2022-12-24T04:38:01.610Z,10.68
2022-12-24T04:43:03.313Z,10.66
2022-12-24T04:48:05.054Z,10.60
2022-12-24T04:53:06.671Z,10.56
2022-12-24T04:58:08.589Z,10.47
2022-12-24T05:03:10.451Z,10.42
2022-12-24T05:08:12.281Z,10.33
2022-12-24T05:13:13.884Z,10.24
2022-12-24T05:18:15.671Z,10.17
2022-12-24T05:23:38.589Z,10.12
2022-12-24T05:28:40.188Z,10.17
2022-12-24T05:33:41.844Z,10.16
2022-12-24T05:38:44.311Z,10.13
2022-12-24T05:43:46.321Z,10.13
2022-12-24T05:48:48.936Z,10.13
2022-12-24T05:53:52.280Z,10.06
2022-12-24T05:58:54.895Z,9.97
2022-12-24T06:03:56.706Z,9.88
2022-12-24T06:08:59.007Z,9.81
2022-12-24T06:14:00.704Z,9.74
2022-12-24T06:19:02.319Z,9.74
2022-12-24T06:24:04.267Z,9.73
2022-12-24T06:29:06.184Z,9.73
2022-12-24T06:34:08.034Z,9.70
2022-12-24T06:39:09.744Z,9.80
2022-12-24T06:44:11.477Z,9.90
2022-12-24T06:49:13.283Z,10.01
2022-12-24T06:54:14.889Z,10.01
2022-12-24T06:59:16.500Z,9.93
2022-12-24T07:04:20.478Z,9.79
2022-12-24T07:09:22.477Z,9.66
2022-12-24T07:14:24.111Z,9.51
2022-12-24T07:19:25.806Z,9.38
2022-12-24T07:24:27.466Z,9.46
2022-12-24T07:29:29.051Z,9.39
2022-12-24T07:34:30.939Z,9.31
2022-12-24T07:39:32.624Z,9.24
2022-12-24T07:44:35.084Z,9.31
2022-12-24T07:49:36.683Z,9.28
2022-12-24T07:54:38.378Z,9.24
2022-12-24T07:59:39.993Z,9.19
2022-12-24T08:04:41.667Z,9.24
2022-12-24T08:09:44.509Z,9.27
2022-12-24T08:14:46.150Z,9.29
2022-12-24T08:19:47.964Z,9.30
2022-12-24T08:24:49.561Z,9.21
2022-12-24T08:29:51.168Z,9.18
2022-12-24T08:34:52.787Z,9.25
2022-12-24T08:39:54.380Z,9.46
2022-12-24T08:44:55.971Z,9.60
2022-12-24T08:49:57.550Z,9.72
2022-12-24T08:54:59.204Z,9.87
2022-12-24T09:00:00.819Z,10.11
2022-12-24T09:05:02.465Z,10.32
2022-12-24T09:10:04.978Z,10.52
2022-12-24T09:15:08.209Z,10.77
2022-12-24T09:20:10.545Z,11.10
2022-12-24T09:25:12.443Z,11.40
2022-12-24T09:30:14.698Z,11.66
2022-12-24T09:35:16.510Z,11.88
2022-12-24T09:40:28.343Z,12.00
2022-12-24T09:45:38.324Z,12.13
2022-12-24T09:50:54.740Z,12.23
2022-12-24T09:56:03.205Z,12.38
2022-12-24T10:01:05.146Z,12.52
2022-12-24T10:06:27.055Z,12.67
2022-12-24T10:12:04.189Z,12.79
2022-12-24T10:17:14.909Z,12.84
2022-12-24T10:22:26.472Z,12.89
2022-12-24T10:27:38.218Z,12.92
2022-12-24T10:32:40.332Z,12.82
2022-12-24T10:37:47.933Z,12.79
2022-12-24T10:42:51.500Z,12.71
2022-12-24T10:47:58.700Z,12.62
2022-12-24T10:53:33.538Z,12.58
2022-12-24T10:58:35.969Z,12.57
2022-12-24T11:03:38.412Z,12.58
2022-12-24T11:08:43.320Z,12.58
2022-12-24T11:13:55.232Z,12.64
2022-12-24T11:18:59.331Z,12.71
2022-12-24T11:24:06.464Z,12.77
2022-12-24T11:29:20.565Z,12.97
2022-12-24T11:34:30.641Z,13.12
2022-12-24T11:39:39.761Z,13.18
2022-12-24T11:44:48.590Z,13.35
2022-12-24T11:49:50.204Z,13.35
2022-12-24T11:55:16.343Z,13.47
2022-12-24T12:00:18.703Z,13.53
2022-12-24T12:05:31.765Z,13.37
2022-12-24T12:10:39.211Z,13.27
2022-12-24T12:16:01.525Z,13.17
2022-12-24T12:21:17.241Z,13.04
2022-12-24T12:26:28.244Z,13.02
2022-12-24T12:31:40.309Z,12.93
2022-12-24T12:37:20.784Z,12.85
2022-12-24T12:42:35.229Z,12.80
2022-12-24T12:48:01.459Z,12.62
2022-12-24T12:53:15.413Z,12.48
2022-12-24T12:58:22.863Z,12.39
2022-12-24T13:03:33.705Z,12.37
2022-12-24T13:09:06.062Z,12.46
2022-12-24T13:14:28.911Z,12.36
2022-12-24T13:19:37.661Z,12.27
2022-12-24T13:24:39.683Z,12.24
2022-12-24T13:30:01.056Z,12.15
2022-12-24T13:35:20.875Z,12.15
2022-12-24T13:40:23.615Z,12.17
2022-12-24T13:45:28.918Z,12.38
2022-12-24T13:50:39.526Z,12.48
2022-12-24T13:55:52.813Z,12.50
2022-12-24T14:00:59.025Z,12.57
2022-12-24T14:06:23.611Z,12.56
2022-12-24T14:11:29.187Z,12.57
2022-12-24T14:16:50.326Z,12.56
2022-12-24T14:21:57.996Z,12.46
2022-12-24T14:27:35.564Z,12.41
2022-12-24T14:32:41.257Z,12.35
2022-12-24T14:37:46.555Z,12.34
2022-12-24T14:43:06.851Z,12.25
2022-12-24T14:48:16.448Z,12.19
2022-12-24T14:53:36.886Z,12.14
2022-12-24T14:58:42.301Z,11.99
2022-12-24T15:03:44.252Z,11.72
2022-12-24T15:08:49.983Z,11.55
2022-12-24T15:13:55.613Z,11.39
2022-12-24T15:19:01.503Z,11.30
2022-12-24T15:24:04.257Z,11.09
2022-12-24T15:29:21.053Z,10.97
2022-12-24T15:34:30.055Z,10.84
2022-12-24T15:39:32.136Z,10.71
2022-12-24T15:44:36.893Z,10.59
2022-12-24T15:49:38.814Z,10.42
2022-12-24T15:54:55.439Z,10.30
2022-12-24T16:00:01.030Z,10.17
2022-12-24T16:05:21.596Z,10.12
2022-12-24T16:10:25.492Z,10.04
2022-12-24T16:15:27.311Z,10.02
2022-12-24T16:20:29.379Z,9.99
2022-12-24T16:25:30.992Z,9.97
2022-12-24T16:30:33.039Z,9.90
2022-12-24T16:35:36.594Z,9.82
2022-12-24T16:40:38.272Z,9.85
2022-12-24T16:45:40.326Z,9.80
2022-12-24T16:50:41.940Z,9.79
2022-12-24T16:55:43.989Z,9.78
2022-12-24T17:00:46.165Z,9.71
2022-12-24T17:05:47.974Z,9.64
2022-12-24T17:10:50.991Z,9.59
2022-12-24T17:15:52.790Z,9.51
2022-12-24T17:21:01.804Z,9.49
2022-12-24T17:26:09.012Z,9.44
2022-12-24T17:31:19.128Z,9.31
2022-12-24T17:36:21.421Z,9.20
2022-12-24T17:41:23.291Z,9.12
2022-12-24T17:46:24.964Z,9.06
2022-12-24T17:51:27.739Z,9.01
2022-12-24T17:56:29.985Z,8.94
2022-12-24T18:01:32.259Z,8.90
2022-12-24T18:06:34.258Z,8.89
2022-12-24T18:11:37.371Z,8.83
2022-12-24T18:16:40.295Z,8.85
2022-12-24T18:21:42.036Z,8.90
2022-12-24T18:26:45.627Z,8.95
2022-12-24T18:31:47.359Z,9.00
2022-12-24T18:36:54.898Z,9.11
2022-12-24T18:41:57.206Z,9.10
2022-12-24T18:47:00.155Z,9.08
2022-12-24T18:52:06.884Z,9.07
2022-12-24T18:57:08.957Z,9.07
2022-12-24T19:02:10.691Z,9.02
2022-12-24T19:07:12.394Z,9.01
2022-12-24T19:12:14.806Z,9.04
2022-12-24T19:17:16.405Z,9.10
2022-12-24T19:22:17.992Z,9.13
2022-12-24T19:27:19.602Z,9.20
2022-12-24T19:32:21.209Z,9.33
2022-12-24T19:37:23.184Z,9.56
2022-12-24T19:42:24.859Z,9.75
2022-12-24T19:47:26.967Z,9.74
2022-12-24T19:52:28.767Z,9.77
2022-12-24T19:57:30.437Z,9.80
2022-12-24T20:02:33.458Z,9.70
2022-12-24T20:07:35.300Z,9.57
2022-12-24T20:12:37.400Z,9.43
2022-12-24T20:17:39.003Z,9.37
2022-12-24T20:22:40.689Z,9.37
2022-12-24T20:27:42.319Z,9.30
2022-12-24T20:32:43.960Z,9.23
2022-12-24T20:37:46.495Z,9.19
2022-12-24T20:42:48.177Z,9.10
2022-12-24T20:47:49.996Z,9.03
2022-12-24T20:52:51.913Z,9.01
2022-12-24T20:57:53.564Z,8.90
2022-12-24T21:02:55.407Z,8.69
2022-12-24T21:07:57.154Z,8.58
2022-12-24T21:12:59.326Z,8.53
2022-12-24T21:18:09.913Z,8.51
2022-12-24T21:23:11.835Z,8.47
2022-12-24T21:28:13.426Z,8.42
2022-12-24T21:33:15.011Z,8.38
2022-12-24T21:38:16.654Z,8.33
2022-12-24T21:43:18.313Z,8.33
2022-12-24T21:48:39.702Z,8.31
2022-12-24T21:53:59.967Z,8.28
2022-12-24T21:59:01.795Z,8.25
2022-12-24T22:04:03.406Z,8.13
2022-12-24T22:09:23.993Z,8.06
2022-12-24T22:14:25.669Z,8.00
2022-12-24T22:19:28.171Z,7.93
2022-12-24T22:24:29.795Z,7.81
2022-12-24T22:29:31.426Z,7.83
2022-12-24T22:34:33.027Z,7.83
2022-12-24T22:39:35.072Z,8.01
2022-12-24T22:44:36.703Z,8.43
2022-12-24T22:49:38.370Z,8.92
2022-12-24T22:54:40.119Z,8.92
2022-12-24T22:59:42.040Z,8.93
2022-12-24T23:04:43.979Z,8.87
2022-12-24T23:09:45.693Z,9.03
2022-12-24T23:14:56.491Z,9.04
2022-12-24T23:19:58.425Z,8.99
2022-12-24T23:25:00.144Z,9.04
2022-12-24T23:30:01.926Z,9.06
2022-12-24T23:35:03.970Z,9.06
2022-12-24T23:40:06.230Z,9.00
2022-12-24T23:45:08.402Z,8.90
2022-12-24T23:50:11.417Z,8.82
2022-12-24T23:55:13.042Z,8.76
